Terminal Aerodrome Forecast
Issued by NWS

Home | Current Version | Previous Version | Text Only | Print | Product List | Glossary Off
Versions: 1 2 3 4 5 6 7 8 9 10 11 12 13 14 15 16 17 18

153
FTUS43 KMPX 161133
TAFAXN
TAF
KAXN 161133Z 1612/1712 13010KT 6SM BR BKN009 OVC030
     FM161600 14008KT 6SM BR VCSH OVC008
     FM161800 20008KT 5SM -RA OVC008
     FM162100 30007KT 4SM RA BR VCTS SCT008 OVC015CB
     FM170000 35007KT 3SM RA BR VCTS SCT012 OVC020CB
      TEMPO 1700/1704 2SM TSRA BKN012CB
     FM170400 33009KT 4SM -RA BR OVC005
     FM170900 34010KT 6SM BR OVC003=

USA.gov is the U.S. government's official web portal to all federal, state and local government web resources and services.